Time;durP1;ratioP1;P1;durP2;ratioP2;P2;SDS_P1;SDS_P2;PMS_P1;PMS_P2;Temp;Humidity;BMP_temperature;BMP_pressure;BME280_temperature;BME280_humidity;BME280_pressure;Samples;Min_cycle;Max_cycle;Signal;HPM_P1;HPM_P2
2021/11/27 00:00:40;;;;;;;;;;;15.20;99.90;;;;;;5067219;28;20867;-69
2021/11/27 00:03:07;;;;;;;;;;;15.20;99.90;;;;;;5070978;28;19975;-68
2021/11/27 00:05:34;;;;;;;;;;;15.20;99.90;;;;;;5072714;28;19996;-69
2021/11/27 00:08:02;;;;;;;;;;;15.20;99.90;;;;;;5070920;28;19921;-69
2021/11/27 00:10:29;;;;;;;;;;;15.30;99.90;;;;;;5072952;28;19952;-68
2021/11/27 00:12:56;;;;;;;;;;;15.40;99.90;;;;;;5069569;28;19919;-69
2021/11/27 00:15:24;;;;;;;;;;;15.40;99.90;;;;;;5071446;28;20362;-68
2021/11/27 00:17:51;;;;;;;;;;;15.50;99.90;;;;;;5070541;28;19923;-68
2021/11/27 00:20:20;;;;;;;;;;;15.60;99.90;;;;;;5073822;28;20354;-70
2021/11/27 00:22:47;;;;;;;;;;;15.70;99.90;;;;;;5073228;28;20283;-68
2021/11/27 00:25:14;;;;;;;;;;;15.80;99.90;;;;;;5073065;28;20290;-71
2021/11/27 00:27:44;;;;;;;;;;;15.80;99.90;;;;;;5069102;28;19913;-72
2021/11/27 00:30:13;;;;;;;;;;;15.90;99.90;;;;;;5071679;28;19916;-73
2021/11/27 00:32:40;;;;;;;;;;;16.00;99.90;;;;;;5072167;28;19958;-73
2021/11/27 00:35:08;;;;;;;;;;;16.10;99.90;;;;;;5071355;28;19913;-73
2021/11/27 00:37:35;;;;;;;;;;;16.10;99.90;;;;;;5072127;28;19913;-74
2021/11/27 00:40:04;;;;;;;;;;;16.20;99.90;;;;;;5070595;28;19916;-74
2021/11/27 00:42:30;;;;;;;;;;;16.20;99.90;;;;;;5073303;28;19966;-75
2021/11/27 00:44:58;;;;;;;;;;;16.20;99.90;;;;;;5070223;28;19958;-72
2021/11/27 00:47:26;;;;;;;;;;;16.20;99.90;;;;;;5073723;28;19912;-70
2021/11/27 00:49:54;;;;;;;;;;;16.30;99.90;;;;;;5068179;28;21278;-74
2021/11/27 00:52:21;;;;;;;;;;;16.30;99.90;;;;;;5068729;28;19936;-74
2021/11/27 00:54:48;;;;;;;;;;;16.30;99.90;;;;;;5069406;28;20014;-74
2021/11/27 00:57:16;;;;;;;;;;;16.20;99.90;;;;;;5069147;28;19913;-69
2021/11/27 00:59:42;;;;;;;;;;;16.30;99.90;;;;;;5070699;28;19920;-69
2021/11/27 01:02:09;;;;;;;;;;;16.20;99.90;;;;;;5071048;28;19966;-68
2021/11/27 01:04:37;;;;;;;;;;;16.10;99.90;;;;;;5071810;28;19932;-68
2021/11/27 01:07:06;;;;;;;;;;;16.10;99.90;;;;;;5070920;28;20413;-70
2021/11/27 01:09:33;;;;;;;;;;;16.10;99.90;;;;;;5071829;28;19916;-69
2021/11/27 01:12:00;;;;;;;;;;;16.20;99.90;;;;;;5072093;28;19913;-68
2021/11/27 01:14:28;;;;;;;;;;;16.30;99.90;;;;;;5072261;28;20358;-69
2021/11/27 01:16:57;;;;;;;;;;;16.40;99.90;;;;;;5068596;28;20011;-68
2021/11/27 01:19:24;;;;;;;;;;;16.50;99.90;;;;;;5071367;28;19928;-69
2021/11/27 01:21:53;;;;;;;;;;;16.50;99.90;;;;;;5069515;28;20003;-68
2021/11/27 01:24:20;;;;;;;;;;;16.40;99.90;;;;;;5072207;28;19985;-69
2021/11/27 01:26:49;;;;;;;;;;;16.50;99.90;;;;;;5066812;28;19913;-69
2021/11/27 01:29:16;;;;;;;;;;;16.40;99.90;;;;;;5071597;28;20454;-68
2021/11/27 01:31:43;;;;;;;;;;;16.30;99.90;;;;;;5070293;28;19920;-69
2021/11/27 01:34:10;;;;;;;;;;;16.20;99.90;;;;;;5067588;28;19913;-69
2021/11/27 01:36:38;;;;;;;;;;;16.10;99.90;;;;;;5067415;28;19920;-70
2021/11/27 01:39:06;;;;;;;;;;;16.00;99.90;;;;;;5070664;28;19920;-69
2021/11/27 01:41:33;;;;;;;;;;;16.00;99.90;;;;;;5069671;28;20389;-69
2021/11/27 01:43:59;;;;;;;;;;;16.10;99.90;;;;;;5071551;28;20428;-68
2021/11/27 01:46:28;;;;;;;;;;;16.20;99.90;;;;;;5070823;28;20700;-70
2021/11/27 01:48:54;;;;;;;;;;;16.20;99.90;;;;;;5071002;28;19920;-71
2021/11/27 01:51:22;;;;;;;;;;;16.30;99.90;;;;;;5071386;28;20342;-71
2021/11/27 01:53:51;;;;;;;;;;;16.50;99.90;;;;;;5069791;28;20009;-68
2021/11/27 01:56:19;;;;;;;;;;;16.50;99.90;;;;;;5071649;28;20007;-74
2021/11/27 01:58:47;;;;;;;;;;;16.60;99.90;;;;;;5069981;28;19927;-69
2021/11/27 02:01:15;;;;;;;;;;;16.50;99.90;;;;;;5070806;28;19962;-71
2021/11/27 02:03:42;;;;;;;;;;;16.20;99.90;;;;;;5069883;28;20421;-68
2021/11/27 02:06:10;;;;;;;;;;;16.00;99.90;;;;;;5070436;28;19922;-69
2021/11/27 02:08:39;;;;;;;;;;;15.90;99.90;;;;;;5070114;28;19916;-69
2021/11/27 02:11:07;;;;;;;;;;;15.70;99.90;;;;;;5071230;28;19942;-69
2021/11/27 02:13:33;;;;;;;;;;;15.60;99.90;;;;;;5068425;28;19962;-68
2021/11/27 02:16:00;;;;;;;;;;;15.70;99.90;;;;;;5071586;28;20027;-70
2021/11/27 02:18:27;;;;;;;;;;;15.70;99.90;;;;;;5069567;28;19920;-68
2021/11/27 02:21:07;;;;;;;;;;;15.80;99.90;;;;;;5068081;28;19912;-68
2021/11/27 02:23:34;;;;;;;;;;;15.80;99.90;;;;;;5068376;28;19916;-69
2021/11/27 02:26:02;;;;;;;;;;;15.80;99.90;;;;;;5070158;28;20268;-68
2021/11/27 02:28:29;;;;;;;;;;;15.90;99.90;;;;;;5069345;28;20003;-68
2021/11/27 02:30:56;;;;;;;;;;;15.90;99.90;;;;;;5070152;28;19912;-71
2021/11/27 02:33:23;;;;;;;;;;;15.90;99.90;;;;;;5069911;28;20374;-68
2021/11/27 02:35:50;;;;;;;;;;;15.90;99.90;;;;;;5069311;28;19920;-68
2021/11/27 02:38:16;;;;;;;;;;;15.90;99.90;;;;;;5066633;28;19924;-69
2021/11/27 02:40:45;;;;;;;;;;;15.90;99.90;;;;;;5071264;28;20320;-71
2021/11/27 02:43:11;;;;;;;;;;;16.00;99.90;;;;;;5068396;28;19913;-72
2021/11/27 02:45:38;;;;;;;;;;;16.00;99.90;;;;;;5070214;28;19916;-69
2021/11/27 02:48:05;;;;;;;;;;;16.00;99.90;;;;;;5070338;28;20299;-70
2021/11/27 02:50:32;;;;;;;;;;;16.00;99.90;;;;;;5068581;28;19912;-70
2021/11/27 02:52:59;;;;;;;;;;;16.00;99.90;;;;;;5069058;28;19966;-68
2021/11/27 02:55:25;;;;;;;;;;;16.10;99.90;;;;;;5068671;28;19927;-71
2021/11/27 02:57:52;;;;;;;;;;;16.10;99.90;;;;;;5069813;28;19916;-72
2021/11/27 03:00:20;;;;;;;;;;;16.20;99.90;;;;;;5068743;28;19912;-70
2021/11/27 03:02:48;;;;;;;;;;;16.30;99.90;;;;;;5069438;28;19924;-72
2021/11/27 03:05:18;;;;;;;;;;;16.40;99.90;;;;;;5068482;28;19912;-70
2021/11/27 03:07:45;;;;;;;;;;;16.50;99.90;;;;;;5069859;28;20006;-68
2021/11/27 03:10:14;;;;;;;;;;;16.50;99.90;;;;;;5068361;28;19921;-74
2021/11/27 03:12:41;;;;;;;;;;;16.40;99.90;;;;;;5070607;28;19913;-68
2021/11/27 03:15:10;;;;;;;;;;;16.50;99.90;;;;;;5066065;28;19921;-71
2021/11/27 03:17:37;;;;;;;;;;;16.50;99.90;;;;;;5068657;28;19944;-70
2021/11/27 03:20:05;;;;;;;;;;;16.50;99.90;;;;;;5067959;28;19932;-67
2021/11/27 03:22:32;;;;;;;;;;;16.60;99.90;;;;;;5069121;28;19955;-68
2021/11/27 03:25:00;;;;;;;;;;;16.70;99.90;;;;;;5067171;28;19916;-69
2021/11/27 03:27:27;;;;;;;;;;;16.70;99.90;;;;;;5066439;28;19927;-73
2021/11/27 03:29:54;;;;;;;;;;;16.70;99.90;;;;;;5068681;28;19985;-71
2021/11/27 03:32:21;;;;;;;;;;;16.80;99.90;;;;;;5069386;28;19913;-70
2021/11/27 03:34:48;;;;;;;;;;;16.80;99.90;;;;;;5069011;28;19920;-70
2021/11/27 03:37:15;;;;;;;;;;;16.90;99.90;;;;;;5067880;28;20321;-70
2021/11/27 03:39:42;;;;;;;;;;;16.90;99.90;;;;;;5068960;28;19921;-70
2021/11/27 03:42:10;;;;;;;;;;;16.90;99.90;;;;;;5067658;28;20321;-69
2021/11/27 03:44:38;;;;;;;;;;;17.00;99.90;;;;;;5069782;28;19912;-67
2021/11/27 03:47:06;;;;;;;;;;;17.10;99.90;;;;;;5068155;28;19913;-70
2021/11/27 03:49:33;;;;;;;;;;;17.20;99.90;;;;;;5069594;28;19956;-69
2021/11/27 03:52:01;;;;;;;;;;;17.20;99.90;;;;;;5068187;28;20371;-67
2021/11/27 03:54:29;;;;;;;;;;;17.20;99.90;;;;;;5067887;28;19928;-71
2021/11/27 03:56:56;;;;;;;;;;;17.10;99.90;;;;;;5069095;28;19913;-73
2021/11/27 03:59:23;;;;;;;;;;;17.10;99.90;;;;;;5069534;28;19921;-70
2021/11/27 04:01:50;;;;;;;;;;;17.20;99.90;;;;;;5067660;28;19975;-69
2021/11/27 04:04:17;;;;;;;;;;;17.20;99.90;;;;;;5070191;28;20255;-68
2021/11/27 04:06:43;;;;;;;;;;;17.20;99.90;;;;;;5068400;28;19912;-67
2021/11/27 04:09:11;;;;;;;;;;;17.30;99.90;;;;;;5069343;28;19973;-69
2021/11/27 04:11:39;;;;;;;;;;;17.20;99.90;;;;;;5069063;28;19912;-71
2021/11/27 04:14:05;;;;;;;;;;;17.20;99.90;;;;;;5068063;28;19997;-69
2021/11/27 04:16:32;;;;;;;;;;;17.30;99.90;;;;;;5069762;28;19927;-71
2021/11/27 04:18:59;;;;;;;;;;;17.30;99.90;;;;;;5067879;28;19927;-68
2021/11/27 04:21:26;;;;;;;;;;;17.40;99.90;;;;;;5068891;28;19928;-71
2021/11/27 04:23:53;;;;;;;;;;;17.40;99.90;;;;;;5067520;28;19920;-67
2021/11/27 04:26:20;;;;;;;;;;;17.40;99.90;;;;;;5068571;28;20282;-71
2021/11/27 04:28:48;;;;;;;;;;;17.40;99.90;;;;;;5068820;28;20556;-67
2021/11/27 04:31:18;;;;;;;;;;;17.40;99.90;;;;;;5069446;28;19927;-70
2021/11/27 04:33:45;;;;;;;;;;;17.40;99.90;;;;;;5067726;28;19923;-68
2021/11/27 04:36:12;;;;;;;;;;;17.20;99.90;;;;;;5069303;28;20011;-68
2021/11/27 04:38:38;;;;;;;;;;;17.20;99.90;;;;;;5068341;28;19932;-68
2021/11/27 04:41:05;;;;;;;;;;;17.10;99.90;;;;;;5062240;28;19935;-67
2021/11/27 04:43:32;;;;;;;;;;;17.10;99.90;;;;;;5062943;28;19913;-67
2021/11/27 04:45:59;;;;;;;;;;;17.10;99.90;;;;;;5057838;28;19942;-70
2021/11/27 04:48:26;;;;;;;;;;;17.20;99.90;;;;;;5060588;28;19916;-72
2021/11/27 04:50:52;;;;;;;;;;;17.20;99.90;;;;;;5067123;28;19916;-67
2021/11/27 04:53:19;;;;;;;;;;;17.10;99.90;;;;;;5065424;28;19916;-69
2021/11/27 04:55:46;;;;;;;;;;;17.10;99.90;;;;;;5066395;28;19913;-68
2021/11/27 04:58:12;;;;;;;;;;;17.10;99.90;;;;;;5065290;28;19916;-69
2021/11/27 05:00:40;;;;;;;;;;;17.10;99.90;;;;;;5067721;28;19919;-70
2021/11/27 05:03:07;;;;;;;;;;;17.00;99.90;;;;;;5064937;28;19924;-70
2021/11/27 05:05:34;;;;;;;;;;;17.00;99.90;;;;;;5061081;28;19916;-68
2021/11/27 05:08:00;;;;;;;;;;;17.10;99.90;;;;;;5063679;28;20241;-72
2021/11/27 05:10:27;;;;;;;;;;;17.10;99.90;;;;;;5066113;28;19927;-68
2021/11/27 05:12:54;;;;;;;;;;;17.10;99.90;;;;;;5062795;28;20271;-68
2021/11/27 05:15:21;;;;;;;;;;;17.00;99.90;;;;;;5061190;28;19923;-69
2021/11/27 05:17:47;;;;;;;;;;;17.10;99.90;;;;;;5065263;28;19920;-67
2021/11/27 05:20:14;;;;;;;;;;;17.00;99.90;;;;;;5065656;28;19916;-67
2021/11/27 05:22:41;;;;;;;;;;;16.90;99.90;;;;;;5057902;28;19928;-68
2021/11/27 05:25:08;;;;;;;;;;;16.90;99.90;;;;;;5056872;28;19919;-66
2021/11/27 05:27:35;;;;;;;;;;;16.90;99.90;;;;;;5064596;28;19912;-68
2021/11/27 05:30:03;;;;;;;;;;;17.00;99.90;;;;;;5062151;28;20368;-68
2021/11/27 05:35:02;;;;;;;;;;;17.00;99.90;;;;;;5062218;28;19920;-68
2021/11/27 05:37:29;;;;;;;;;;;17.00;99.90;;;;;;5060858;28;19977;-72
2021/11/27 05:39:56;;;;;;;;;;;17.00;99.90;;;;;;5061979;28;20394;-74
2021/11/27 05:42:23;;;;;;;;;;;17.00;99.90;;;;;;5068257;28;19913;-75
2021/11/27 05:44:51;;;;;;;;;;;17.00;99.90;;;;;;5062233;28;19927;-69
2021/11/27 05:47:19;;;;;;;;;;;17.10;99.90;;;;;;5065482;28;19921;-75
2021/11/27 05:49:45;;;;;;;;;;;17.10;99.90;;;;;;5063012;28;20011;-74
2021/11/27 05:52:13;;;;;;;;;;;17.10;99.90;;;;;;5060220;28;19912;-73
2021/11/27 05:54:39;;;;;;;;;;;17.00;99.90;;;;;;5063851;28;19917;-71
2021/11/27 05:57:06;;;;;;;;;;;16.90;99.90;;;;;;5065139;28;19924;-74
2021/11/27 05:59:33;;;;;;;;;;;16.90;99.90;;;;;;5060799;28;19921;-74
2021/11/27 06:01:59;;;;;;;;;;;16.80;99.90;;;;;;5060492;28;19947;-74
2021/11/27 06:04:26;;;;;;;;;;;16.80;99.90;;;;;;5059905;28;20367;-74
2021/11/27 06:06:57;;;;;;;;;;;16.60;99.90;;;;;;5059884;28;21508;-75
2021/11/27 06:09:24;;;;;;;;;;;16.60;99.90;;;;;;5065795;28;19912;-71
2021/11/27 06:11:51;;;;;;;;;;;16.60;99.90;;;;;;5064005;28;19924;-73
2021/11/27 06:14:17;;;;;;;;;;;16.70;99.90;;;;;;5059949;28;19912;-74
2021/11/27 06:16:44;;;;;;;;;;;16.70;99.90;;;;;;5061495;28;19917;-74
2021/11/27 06:19:12;;;;;;;;;;;16.80;99.90;;;;;;5064505;28;20395;-73
2021/11/27 06:21:39;;;;;;;;;;;16.70;99.90;;;;;;5063596;28;19913;-74
2021/11/27 06:24:09;;;;;;;;;;;16.60;99.90;;;;;;5062958;28;20353;-73
2021/11/27 06:26:35;;;;;;;;;;;16.30;99.90;;;;;;5061641;28;19920;-75
2021/11/27 06:29:03;;;;;;;;;;;16.10;99.90;;;;;;5064621;28;19966;-73
2021/11/27 06:31:30;;;;;;;;;;;15.90;99.90;;;;;;5062039;28;19917;-74
2021/11/27 06:33:56;;;;;;;;;;;15.90;99.90;;;;;;5059683;28;20015;-73
2021/11/27 06:36:25;;;;;;;;;;;15.90;99.90;;;;;;5063316;28;19951;-72
2021/11/27 06:38:51;;;;;;;;;;;15.80;99.90;;;;;;5064382;28;20023;-73
2021/11/27 06:41:18;;;;;;;;;;;15.80;99.90;;;;;;5060083;28;19970;-74
2021/11/27 06:43:45;;;;;;;;;;;15.80;99.90;;;;;;5059452;28;19936;-75
2021/11/27 06:46:11;;;;;;;;;;;16.00;99.90;;;;;;5064759;28;20054;-73
2021/11/27 06:48:38;;;;;;;;;;;16.10;99.90;;;;;;5063437;28;19917;-75
2021/11/27 06:51:05;;;;;;;;;;;16.10;99.90;;;;;;5058932;28;19913;-74
2021/11/27 06:53:31;;;;;;;;;;;16.20;99.90;;;;;;5060953;28;20389;-76
2021/11/27 06:55:59;;;;;;;;;;;16.20;99.90;;;;;;5059095;28;20007;-75
2021/11/27 06:58:26;;;;;;;;;;;16.30;99.90;;;;;;5061572;28;19920;-72
2021/11/27 07:00:52;;;;;;;;;;;16.30;99.90;;;;;;5063769;28;19917;-73
2021/11/27 07:03:19;;;;;;;;;;;16.30;99.90;;;;;;5061915;28;20298;-69
2021/11/27 07:05:46;;;;;;;;;;;16.30;99.90;;;;;;5057171;28;19959;-74
2021/11/27 07:08:12;;;;;;;;;;;16.30;99.90;;;;;;5060936;28;19916;-72
2021/11/27 07:10:39;;;;;;;;;;;16.30;99.90;;;;;;5058442;28;19927;-72
2021/11/27 07:13:05;;;;;;;;;;;16.40;99.90;;;;;;5063025;28;19955;-73
2021/11/27 07:15:32;;;;;;;;;;;16.40;99.90;;;;;;5063800;28;19951;-72
2021/11/27 07:17:59;;;;;;;;;;;16.40;99.90;;;;;;5058702;28;19916;-73
2021/11/27 07:20:26;;;;;;;;;;;16.30;99.90;;;;;;5065500;28;19920;-73
2021/11/27 07:22:52;;;;;;;;;;;16.30;99.90;;;;;;5067717;28;19912;-72
2021/11/27 07:25:19;;;;;;;;;;;16.30;99.90;;;;;;5060228;28;19922;-74
2021/11/27 07:27:46;;;;;;;;;;;16.30;99.90;;;;;;5063613;28;20382;-74
2021/11/27 07:30:13;;;;;;;;;;;16.20;99.90;;;;;;5062421;28;19959;-73
2021/11/27 07:32:39;;;;;;;;;;;16.00;99.90;;;;;;5058620;28;20363;-70
2021/11/27 07:35:06;;;;;;;;;;;15.80;99.90;;;;;;5061988;28;19916;-73
2021/11/27 07:37:33;;;;;;;;;;;15.80;99.90;;;;;;5058354;28;19967;-74
2021/11/27 07:40:00;;;;;;;;;;;15.80;99.90;;;;;;5061099;28;19933;-73
2021/11/27 07:42:26;;;;;;;;;;;15.80;99.90;;;;;;5063253;28;20336;-74
2021/11/27 07:44:53;;;;;;;;;;;15.80;99.90;;;;;;5057137;28;19913;-70
2021/11/27 07:47:19;;;;;;;;;;;15.80;99.90;;;;;;5063176;28;19913;-73
2021/11/27 07:49:46;;;;;;;;;;;15.80;99.90;;;;;;5058472;28;20022;-70
2021/11/27 07:52:13;;;;;;;;;;;15.70;99.90;;;;;;5058560;28;19913;-73
2021/11/27 07:54:39;;;;;;;;;;;15.70;99.90;;;;;;5061802;28;19920;-72
2021/11/27 07:57:06;;;;;;;;;;;15.80;99.90;;;;;;5065483;28;19920;-72
2021/11/27 07:59:34;;;;;;;;;;;15.80;99.90;;;;;;5059934;28;20438;-74
2021/11/27 08:02:01;;;;;;;;;;;15.70;99.90;;;;;;5059424;28;20010;-74
2021/11/27 08:04:28;;;;;;;;;;;15.80;99.90;;;;;;5057769;28;19920;-73
2021/11/27 08:06:55;;;;;;;;;;;15.80;99.90;;;;;;5059807;28;19913;-70
2021/11/27 08:09:21;;;;;;;;;;;15.80;99.90;;;;;;5062822;28;19920;-73
2021/11/27 08:11:48;;;;;;;;;;;15.90;99.90;;;;;;5061033;28;19916;-72
2021/11/27 08:14:15;;;;;;;;;;;15.90;99.90;;;;;;5058286;28;19975;-74
2021/11/27 08:16:41;;;;;;;;;;;15.90;99.90;;;;;;5061379;28;20332;-72
2021/11/27 08:19:08;;;;;;;;;;;15.80;99.90;;;;;;5062809;28;19936;-73
2021/11/27 08:21:35;;;;;;;;;;;15.90;99.90;;;;;;5054645;28;19999;-72
2021/11/27 08:24:01;;;;;;;;;;;15.80;99.90;;;;;;5065682;28;19912;-74
2021/11/27 08:26:28;;;;;;;;;;;15.80;99.90;;;;;;5062173;28;19948;-74
2021/11/27 08:28:55;;;;;;;;;;;15.80;99.90;;;;;;5062633;28;19958;-73
2021/11/27 08:31:22;;;;;;;;;;;15.90;99.90;;;;;;5067661;28;20345;-74
2021/11/27 08:33:48;;;;;;;;;;;15.90;99.90;;;;;;5065516;28;20370;-71
2021/11/27 08:36:15;;;;;;;;;;;15.90;99.90;;;;;;5061672;28;19921;-73
2021/11/27 08:38:42;;;;;;;;;;;15.90;99.90;;;;;;5069509;28;19981;-73
2021/11/27 08:41:09;;;;;;;;;;;15.90;99.90;;;;;;5061773;28;19970;-73
2021/11/27 08:43:36;;;;;;;;;;;15.90;99.90;;;;;;5063678;28;19959;-73
2021/11/27 08:46:03;;;;;;;;;;;16.00;99.90;;;;;;5066460;28;19916;-74
2021/11/27 08:48:30;;;;;;;;;;;16.00;99.90;;;;;;5064431;28;20043;-74
2021/11/27 08:50:57;;;;;;;;;;;16.00;99.90;;;;;;5061582;28;19912;-74
2021/11/27 08:53:23;;;;;;;;;;;16.00;99.90;;;;;;5065029;28;19952;-74
2021/11/27 08:55:50;;;;;;;;;;;16.00;99.90;;;;;;5066348;28;19927;-73
2021/11/27 08:58:17;;;;;;;;;;;16.00;99.90;;;;;;5068359;28;20295;-74
2021/11/27 09:00:44;;;;;;;;;;;16.00;99.90;;;;;;5061370;28;19917;-74
2021/11/27 09:03:11;;;;;;;;;;;16.00;99.90;;;;;;5066779;28;19981;-74
2021/11/27 09:05:38;;;;;;;;;;;16.00;99.90;;;;;;5065267;28;19923;-74
2021/11/27 09:08:05;;;;;;;;;;;16.00;99.90;;;;;;5060673;28;19912;-73
2021/11/27 09:10:32;;;;;;;;;;;16.00;99.90;;;;;;5060508;28;19913;-71
2021/11/27 09:12:59;;;;;;;;;;;15.90;99.90;;;;;;5064677;28;19924;-74
2021/11/27 09:15:26;;;;;;;;;;;15.80;99.90;;;;;;5063039;28;19999;-71
2021/11/27 09:17:52;;;;;;;;;;;15.80;99.90;;;;;;5059059;28;19913;-71
2021/11/27 09:20:19;;;;;;;;;;;15.90;99.90;;;;;;5058700;28;20363;-71
2021/11/27 09:22:46;;;;;;;;;;;15.80;99.90;;;;;;5063466;28;20022;-73
2021/11/27 09:25:13;;;;;;;;;;;15.80;99.90;;;;;;5060251;28;19923;-71
2021/11/27 09:27:39;;;;;;;;;;;15.80;99.90;;;;;;5059084;28;19921;-69
2021/11/27 09:30:08;;;;;;;;;;;15.80;99.90;;;;;;5062245;28;19920;-72
2021/11/27 09:32:35;;;;;;;;;;;15.80;99.90;;;;;;5055025;28;19921;-69
2021/11/27 09:35:05;;;;;;;;;;;15.80;99.90;;;;;;5062933;28;20397;-69
2021/11/27 09:37:31;;;;;;;;;;;15.80;99.90;;;;;;5063210;28;19958;-72
2021/11/27 09:39:58;;;;;;;;;;;15.80;99.90;;;;;;5058746;28;19925;-71
2021/11/27 09:42:26;;;;;;;;;;;15.70;99.90;;;;;;5059316;28;19917;-68
2021/11/27 09:44:54;;;;;;;;;;;15.70;99.90;;;;;;5064442;28;20359;-71
2021/11/27 09:47:21;;;;;;;;;;;15.70;99.90;;;;;;5062914;28;19920;-71
2021/11/27 09:49:48;;;;;;;;;;;15.70;99.90;;;;;;5063484;28;19988;-72
2021/11/27 09:52:15;;;;;;;;;;;15.80;99.90;;;;;;5062581;28;19913;-71
2021/11/27 09:54:42;;;;;;;;;;;15.80;99.90;;;;;;5063641;28;19952;-73
2021/11/27 09:57:11;;;;;;;;;;;15.80;99.90;;;;;;5065596;28;19916;-72
2021/11/27 09:59:39;;;;;;;;;;;15.80;99.90;;;;;;5058054;28;20357;-70
2021/11/27 10:02:07;;;;;;;;;;;15.80;99.90;;;;;;5059597;28;19920;-73
2021/11/27 10:04:34;;;;;;;;;;;15.80;99.90;;;;;;5063239;28;19923;-73
2021/11/27 10:07:01;;;;;;;;;;;15.80;99.90;;;;;;5061068;28;20370;-72
2021/11/27 10:09:28;;;;;;;;;;;15.70;99.90;;;;;;5065270;28;19921;-75
2021/11/27 10:11:55;;;;;;;;;;;15.80;99.90;;;;;;5059739;28;20043;-72
2021/11/27 10:14:21;;;;;;;;;;;15.80;99.90;;;;;;5084210;28;19944;-72
2021/11/27 10:16:57;;;;;;;;;;;15.90;99.90;;;;;;5058600;28;20031;-68
2021/11/27 10:19:28;;;;;;;;;;;15.90;99.90;;;;;;5063245;28;20291;-74
2021/11/27 10:21:56;;;;;;;;;;;15.90;99.90;;;;;;5061286;28;19921;-72
2021/11/27 10:24:27;;;;;;;;;;;16.00;99.90;;;;;;5062746;28;20008;-73
2021/11/27 10:26:54;;;;;;;;;;;15.90;99.90;;;;;;5059415;28;19917;-72
2021/11/27 10:29:25;;;;;;;;;;;15.90;99.90;;;;;;5056284;28;20011;-72
2021/11/27 10:31:53;;;;;;;;;;;15.90;99.90;;;;;;5061807;28;20367;-71
2021/11/27 10:34:24;;;;;;;;;;;15.90;99.90;;;;;;5056024;28;19986;-74
2021/11/27 10:36:51;;;;;;;;;;;15.80;99.90;;;;;;5061861;28;19916;-70
2021/11/27 10:39:18;;;;;;;;;;;15.90;99.90;;;;;;5062241;28;19970;-70
2021/11/27 10:41:57;;;;;;;;;;;15.80;99.90;;;;;;5057179;28;19969;-74
2021/11/27 10:44:30;;;;;;;;;;;15.80;99.90;;;;;;5057495;28;19916;-75
2021/11/27 10:47:13;;;;;;;;;;;15.80;99.90;;;;;;5060390;28;19916;-72
2021/11/27 10:49:41;;;;;;;;;;;15.80;99.90;;;;;;5062328;28;19917;-68
2021/11/27 10:52:09;;;;;;;;;;;15.80;99.90;;;;;;5060395;28;19920;-69
2021/11/27 10:54:53;;;;;;;;;;;15.80;99.90;;;;;;5057100;28;19978;-71
2021/11/27 10:57:25;;;;;;;;;;;15.80;99.90;;;;;;5061451;28;19913;-68
2021/11/27 10:59:53;;;;;;;;;;;15.80;99.90;;;;;;5084933;28;19925;-70
2021/11/27 11:02:22;;;;;;;;;;;15.80;99.90;;;;;;5061157;28;19968;-72
2021/11/27 11:05:19;;;;;;;;;;;15.80;99.90;;;;;;5056830;28;19913;-70
2021/11/27 11:07:59;;;;;;;;;;;15.80;99.90;;;;;;5044360;28;19920;-70
2021/11/27 11:10:32;;;;;;;;;;;15.80;99.90;;;;;;5059798;28;20017;-71
2021/11/27 11:13:07;;;;;;;;;;;15.80;99.90;;;;;;5061848;28;19948;-74
2021/11/27 11:15:41;;;;;;;;;;;15.70;99.90;;;;;;5060391;28;19916;-71
2021/11/27 11:18:11;;;;;;;;;;;15.80;99.90;;;;;;5053574;28;20389;-73
2021/11/27 11:20:41;;;;;;;;;;;15.70;99.90;;;;;;5053315;28;19924;-71
2021/11/27 11:23:12;;;;;;;;;;;15.70;99.90;;;;;;5061902;28;20307;-72
2021/11/27 11:25:52;;;;;;;;;;;15.60;99.90;;;;;;5058269;28;20009;-72
2021/11/27 11:28:19;;;;;;;;;;;15.50;99.90;;;;;;5061915;28;19917;-67
2021/11/27 11:30:47;;;;;;;;;;;15.50;99.90;;;;;;5061212;28;19917;-69
2021/11/27 11:33:15;;;;;;;;;;;15.60;99.90;;;;;;5056276;28;19922;-69
2021/11/27 11:35:42;;;;;;;;;;;15.60;99.90;;;;;;5060736;28;19968;-68
2021/11/27 11:38:11;;;;;;;;;;;15.60;99.90;;;;;;5056455;28;19917;-67
2021/11/27 11:40:39;;;;;;;;;;;15.60;99.90;;;;;;5058346;28;19943;-72
2021/11/27 11:43:06;;;;;;;;;;;15.60;99.90;;;;;;5061539;28;19917;-74
2021/11/27 11:45:33;;;;;;;;;;;15.50;99.90;;;;;;5059121;28;19912;-69
2021/11/27 11:48:00;;;;;;;;;;;15.60;99.90;;;;;;5056041;28;20383;-74
2021/11/27 11:50:28;;;;;;;;;;;15.60;99.90;;;;;;5059619;28;19923;-73
2021/11/27 11:53:02;;;;;;;;;;;15.60;99.90;;;;;;5052925;28;20009;-73
2021/11/27 11:55:28;;;;;;;;;;;15.60;99.90;;;;;;5062337;28;19993;-72
2021/11/27 11:57:56;;;;;;;;;;;15.70;99.90;;;;;;5060793;28;19920;-74
2021/11/27 12:00:29;;;;;;;;;;;15.70;99.90;;;;;;5057536;28;19955;-69
2021/11/27 12:03:06;;;;;;;;;;;15.70;99.90;;;;;;5056403;28;20834;-72
2021/11/27 12:05:34;;;;;;;;;;;15.80;99.90;;;;;;5059150;28;19956;-74
2021/11/27 12:08:02;;;;;;;;;;;15.80;99.90;;;;;;5061039;28;20007;-70
2021/11/27 12:10:42;;;;;;;;;;;15.80;99.90;;;;;;5057991;28;20003;-70
2021/11/27 12:13:09;;;;;;;;;;;15.80;99.90;;;;;;5056043;28;19916;-74
2021/11/27 12:15:36;;;;;;;;;;;15.70;99.90;;;;;;5058610;28;19917;-73
2021/11/27 12:18:10;;;;;;;;;;;15.60;99.90;;;;;;5062370;28;19966;-72
2021/11/27 12:20:43;;;;;;;;;;;15.60;99.90;;;;;;5058554;28;19928;-72
2021/11/27 12:23:35;;;;;;;;;;;15.60;99.90;;;;;;5061078;28;19923;-70
2021/11/27 12:28:35;;;;;;;;;;;15.70;99.90;;;;;;5055606;28;19955;-74
2021/11/27 12:31:03;;;;;;;;;;;15.70;99.90;;;;;;5065677;28;19912;-74
2021/11/27 12:33:45;;;;;;;;;;;15.70;99.90;;;;;;5060960;28;19921;-67
2021/11/27 12:36:28;;;;;;;;;;;15.80;99.90;;;;;;5060906;28;19977;-73
2021/11/27 12:38:59;;;;;;;;;;;15.80;99.90;;;;;;5057693;28;21175;-72
2021/11/27 12:41:27;;;;;;;;;;;15.80;99.90;;;;;;5056181;28;19912;-74
2021/11/27 12:44:12;;;;;;;;;;;15.80;99.90;;;;;;5059057;28;20011;-72
2021/11/27 12:46:40;;;;;;;;;;;15.90;99.90;;;;;;5060897;28;19923;-71
2021/11/27 12:49:33;;;;;;;;;;;15.90;99.90;;;;;;5057705;28;19924;-72
2021/11/27 12:52:12;;;;;;;;;;;15.90;99.90;;;;;;5055268;28;19919;-74
2021/11/27 12:54:39;;;;;;;;;;;15.80;99.90;;;;;;5061367;28;20020;-71
2021/11/27 12:57:06;;;;;;;;;;;15.80;99.90;;;;;;5059358;28;19928;-73
2021/11/27 12:59:33;;;;;;;;;;;15.80;99.90;;;;;;5056246;28;20412;-74
2021/11/27 13:02:00;;;;;;;;;;;15.80;99.90;;;;;;5055170;28;19913;-73
2021/11/27 13:04:35;;;;;;;;;;;15.80;99.90;;;;;;5056750;28;19917;-72
2021/11/27 13:07:02;;;;;;;;;;;15.80;99.90;;;;;;5055963;28;20398;-73
2021/11/27 13:09:29;;;;;;;;;;;15.80;99.90;;;;;;5058514;28;19924;-74
2021/11/27 13:11:57;;;;;;;;;;;15.80;99.90;;;;;;5064404;28;19916;-70
2021/11/27 13:14:28;;;;;;;;;;;15.80;99.90;;;;;;5063195;28;20416;-72
2021/11/27 13:17:03;;;;;;;;;;;15.80;99.90;;;;;;5064494;28;19921;-73
2021/11/27 13:19:31;;;;;;;;;;;15.90;99.90;;;;;;5062729;28;20054;-73
2021/11/27 13:22:04;;;;;;;;;;;15.80;99.90;;;;;;5058900;28;19916;-73
2021/11/27 13:24:31;;;;;;;;;;;15.90;99.90;;;;;;5063351;28;20007;-73
2021/11/27 13:26:58;;;;;;;;;;;15.90;99.90;;;;;;5058912;28;19919;-73
2021/11/27 13:29:28;;;;;;;;;;;15.90;99.90;;;;;;5060386;28;19917;-73
2021/11/27 13:31:55;;;;;;;;;;;15.90;99.90;;;;;;5058858;28;19935;-70
2021/11/27 13:34:23;;;;;;;;;;;15.80;99.90;;;;;;5060078;28;19913;-72
2021/11/27 13:36:51;;;;;;;;;;;15.80;99.90;;;;;;5063768;28;19924;-71
2021/11/27 13:39:22;;;;;;;;;;;15.80;99.90;;;;;;5058262;28;19921;-72
2021/11/27 13:42:07;;;;;;;;;;;15.80;99.90;;;;;;5063452;28;19912;-71
2021/11/27 13:44:34;;;;;;;;;;;15.80;99.90;;;;;;5054197;28;19995;-72
2021/11/27 13:47:01;;;;;;;;;;;15.80;99.90;;;;;;5064078;28;19920;-73
2021/11/27 13:49:29;;;;;;;;;;;15.80;99.90;;;;;;5065621;28;20007;-67
2021/11/27 13:51:56;;;;;;;;;;;15.80;99.90;;;;;;5059312;28;20603;-67
2021/11/27 13:54:23;;;;;;;;;;;15.80;99.90;;;;;;5059995;28;19916;-66
2021/11/27 13:56:51;;;;;;;;;;;15.80;99.90;;;;;;5063173;28;19920;-67
2021/11/27 13:59:28;;;;;;;;;;;15.70;99.90;;;;;;5062924;28;20380;-71
2021/11/27 14:02:08;;;;;;;;;;;15.70;99.90;;;;;;5059208;28;19920;-71
2021/11/27 14:04:36;;;;;;;;;;;15.70;99.90;;;;;;5060123;28;19927;-68
2021/11/27 14:07:06;;;;;;;;;;;15.80;99.90;;;;;;5063579;28;19966;-70
2021/11/27 14:10:01;;;;;;;;;;;15.80;99.90;;;;;;5062207;28;20014;-66
2021/11/27 14:12:33;;;;;;;;;;;15.80;99.90;;;;;;5053025;28;19920;-67
2021/11/27 14:15:01;;;;;;;;;;;15.80;99.90;;;;;;5060680;28;19918;-66
2021/11/27 14:17:28;;;;;;;;;;;15.80;99.90;;;;;;5060259;28;20367;-66
2021/11/27 14:20:08;;;;;;;;;;;15.80;99.90;;;;;;5056979;28;19970;-66
2021/11/27 14:22:35;;;;;;;;;;;15.80;99.90;;;;;;5062726;28;19959;-67
2021/11/27 14:25:10;;;;;;;;;;;15.80;99.90;;;;;;5062554;28;19912;-66
2021/11/27 14:27:52;;;;;;;;;;;15.80;99.90;;;;;;5061144;28;19912;-66